Plum Branch, SC (29845)

4:06 AM EDT on September 16, 2014 (GMT -0400)
Plum Branch South Carolina | Change Station
CLOSE
Current Station
Personal Weather Station
Location: Plum Branch, SC
Elevation: 354 ft
Nearby Weather Stations

Elev 354 ft 33.81 °N, 82.31 °W | Updated 4 seconds ago

Rain
Rain
77.9 °F
Feels Like 80 °F
N
3.6
Wind Variable Wind from SW
Gusts 4.0 mph

Today
High -- | Low -- °F
--% Chance of Precip.
Yesterday
High -- | Low -- °F
Precip. -- in
7:12 AM 7:34 PM
Waning Gibbous, 48% visible
Pressure 30.12 in
Visibility 2.5 miles
Clouds Scattered Clouds 300 ft
Scattered Clouds 3800 ft
Overcast 4800 ft
Heat Index 80 °F
Dew Point 77 °F
Humidity 98%
Rainfall 0.13 in
Snow Depth Not available.
UV 0 out of 12
Pollen 7.60 out of 12
Ozone Good
PM2.5 Good
Flu Activity Not available.
METAR KHQU 160755Z AUTO 00000KT 2 1/2SM SCT003 SCT038 OVC048 23/23 A3012 RMK AO1 T02330233

More Conditions Fewer Conditions

Pressure 30.12 in
Visibility 2.5 miles
Clouds Scattered Clouds 300 ft
Scattered Clouds 3800 ft
Overcast 4800 ft
Heat Index 80 °F
Dew Point 77 °F
Humidity 98%
Rainfall 0.13 in
Snow Depth Not available.
UV 0 out of 12
Pollen 7.60 out of 12
Ozone Good
PM2.5 Good
Flu Activity Not available.
METAR KHQU 160755Z AUTO 00000KT 2 1/2SM SCT003 SCT038 OVC048 23/23 A3012 RMK AO1 T02330233

More Conditions Fewer Conditions

10-Day Weather Forecast

Almanac

Astronomy

Sep. 16, 2014 Rise Set
Actual Time 7:12 AM EDT 7:34 PM EDT
Civil Twilight 6:47 AM EDT 7:59 PM EDT
Nautical Twilight 6:18 AM EDT 8:28 PM EDT
Astronomical Twilight 5:48 AM EDT 8:57 PM EDT
Moon 12:33 AM EDT 2:44 PM EDT
Length of Visible Light 13h 11m
Length of Day
12h 21m
Tomorrow will be 2m 5s shorter.
Waning Gibbous, 48% of the Moon is Illuminated
Today
Waning Gibbous
Sep 24
New
Oct 1
First Quarter
Oct 8
Full
Oct 15
Last Quarter

Today's Extremes

State Highs State Lows

Community

WunderPhotos

Upload Photos

1,753,712 photos uploaded!

Nearby

Air Quality

  Air Quality AQ Index Pollutant
Yesterday Moderate
PM2.5
Yesterday Good
OZONE
Current Good
PM2.5
Current Good
OZONE
Tuesday Good
OZONE

Snow Depth

Station Depth Elevation
No new snow has been reported.

Earthquake Activity

City Distance Mag. Time & Date
No recent earthquake activity has been reported nearby.
Minimum magnitude displayed is 2.5.

Coastal Water Temperatures

Place Temperature
No Stations Reporting

Nearby Weather Stations